Dades meteomassalio
Diari Summary for Juny 14, 2017 Units:  English    Metric   Both
« Previous Day
Next Day »
Diari Semanal Mensual Anual Personalitzat
  Maxima: Minima: Mijana:
Temperatura: TemperatureC °F 17.3 °F 27.8 °F
Rosada: DewpointC °F 9.1 °F 12.7 °F
Humitat: Humidity % 27 % 41 %
Velocitat del vent: WindSpeedKMH mph 0.0 mph 5.2 mph
Racha vent: WindSpeedGustKMH mph - -
Vent:- - East
Pressio: PressurehPa in 1009.4 in -
Pluja: 0.0 in    
Historical Graphs
 
 
Tabular Data for Juny 14, 2017
Time Temperature Dew Point Pressure Wind Wind Speed Wind Gust Humidity Rainfall Rate (Hourly) solar Conditions
TemperatureC °F DewpointC °F PressurehPa in Calm     Humidity % HourlyPrecipMM in SolarRadiationWatts/m^2 W/m2 Conditions
00:03 26.1 °F 9.9 °F 1011.7 in Calm     36 % 0.0 in 0.0 W/m2 CLR
00:08 25.9 °F 9.3 °F 1011.7 in Calm     35 % 0.0 in 0.0 W/m2 CLR
00:13 25.7 °F 9.1 °F 1011.7 in Calm     35 % 0.0 in 0.0 W/m2 CLR
00:18 25.4 °F 9.7 °F 1011.4 in Calm     37 % 0.0 in 0.0 W/m2 CLR
00:23 25.2 °F 10.6 °F 1011.7 in Calm     40 % 0.0 in 0.0 W/m2 CLR
00:28 24.9 °F 10.3 °F 1011.7 in Calm     40 % 0.0 in 0.0 W/m2 CLR
00:33 24.6 °F 9.7 °F 1011.7 in Calm     39 % 0.0 in 0.0 W/m2 CLR
00:38 24.3 °F 11.6 °F 1011.7 in Calm     45 % 0.0 in 0.0 W/m2 CLR
00:43 23.9 °F 11.6 °F 1011.7 in Calm     46 % 0.0 in 0.0 W/m2 CLR
00:48 23.7 °F 11.3 °F 1011.7 in Calm     46 % 0.0 in 0.0 W/m2 CLR
00:53 23.4 °F 11.4 °F 1011.7 in Calm     47 % 0.0 in 0.0 W/m2 CLR
00:58 23.2 °F 11.2 °F 1011.7 in Calm     47 % 0.0 in 0.0 W/m2 CLR
01:03 23.1 °F 11.4 °F 1011.7 in Calm     48 % 0.0 in 0.0 W/m2 CLR
01:08 22.8 °F 11.2 °F 1011.7 in Calm     48 % 0.0 in 0.0 W/m2 CLR
01:13 22.8 °F 11.5 °F 1011.7 in Calm     49 % 0.0 in 0.0 W/m2 CLR
01:18 22.7 °F 10.8 °F 1011.7 in Calm     47 % 0.0 in 0.0 W/m2 CLR
01:23 22.8 °F 10.2 °F 1011.7 in Calm     45 % 0.0 in 0.0 W/m2 CLR
01:28 23.2 °F 10.6 °F 1011.7 in Calm     45 % 0.0 in 0.0 W/m2 CLR
01:33 23.3 °F 11.0 °F 1011.7 in Calm     46 % 0.0 in 0.0 W/m2 CLR
01:38 23.2 °F 10.6 °F 1011.4 in Calm     45 % 0.0 in 0.0 W/m2 CLR
01:43 23.1 °F 11.4 °F 1011.4 in Calm     48 % 0.0 in 0.0 W/m2 CLR
01:48 22.8 °F 10.9 °F 1011.4 in Calm     47 % 0.0 in 0.0 W/m2 CLR
01:53 22.5 °F 10.6 °F 1011.4 in Calm     47 % 0.0 in 0.0 W/m2 CLR
01:58 22.3 °F 10.4 °F 1011.4 in Calm     47 % 0.0 in 0.0 W/m2 CLR
02:03 22.2 °F 10.4 °F 1011.4 in SE 3.2 mph 3.2 mph 47 % 0.0 in 0.0 W/m2 CLR
02:08 22.3 °F 10.8 °F 1011.4 in Calm     48 % 0.0 in 0.0 W/m2 CLR
02:11 22.3 °F 11.1 °F 1011.4 in Calm     49 % 0.0 in 0.0 W/m2 CLR
02:16 21.9 °F 10.4 °F 1011.4 in Calm     48 % 0.0 in 0.0 W/m2 CLR
02:21 21.9 °F 9.7 °F 1011.4 in Calm     46 % 0.0 in 0.0 W/m2 CLR
02:26 22.1 °F 9.9 °F 1011.4 in Calm     46 % 0.0 in 0.0 W/m2 CLR
02:36 22.2 °F 9.7 °F 1011.4 in North 3.7 mph 3.7 mph 45 % 0.0 in 0.0 W/m2 CLR
02:41 22.2 °F 10.0 °F 1011.4 in ENE 1.6 mph   46 % 0.0 in 0.0 W/m2 CLR
02:46 22.1 °F 9.6 °F 1011.4 in Calm     45 % 0.0 in 0.0 W/m2 CLR
02:51 22.2 °F 9.7 °F 1011.7 in Calm     45 % 0.0 in 0.0 W/m2 CLR
02:56 22.4 °F 10.2 °F 1011.4 in Calm     46 % 0.0 in 0.0 W/m2 CLR
03:01 22.4 °F 9.9 °F 1011.7 in Calm     45 % 0.0 in 0.0 W/m2 CLR
03:06 22.4 °F 9.9 °F 1011.4 in Calm     45 % 0.0 in 0.0 W/m2 CLR
03:11 22.2 °F 10.4 °F 1011.4 in Calm     47 % 0.0 in 0.0 W/m2 CLR
03:16 21.9 °F 10.7 °F 1011.4 in Calm     49 % 0.0 in 0.0 W/m2 CLR
03:21 21.6 °F 10.4 °F 1011.4 in Calm     49 % 0.0 in 0.0 W/m2 CLR
03:26 21.3 °F 11.0 °F 1011.4 in Calm     52 % 0.0 in 0.0 W/m2 CLR
03:31 20.9 °F 10.4 °F 1011.4 in Calm     51 % 0.0 in 0.0 W/m2 CLR
03:36 20.8 °F 10.6 °F 1011.4 in Calm     52 % 0.0 in 0.0 W/m2 CLR
03:41 20.7 °F 10.4 °F 1011.4 in Calm     52 % 0.0 in 0.0 W/m2 CLR
03:46 20.6 °F 10.4 °F 1011.4 in Calm     52 % 0.0 in 0.0 W/m2 CLR
03:51 20.5 °F 10.6 °F 1011.4 in Calm     53 % 0.0 in 0.0 W/m2 CLR
03:56 20.4 °F 10.8 °F 1011.4 in Calm     54 % 0.0 in 0.0 W/m2 CLR
04:01 20.4 °F 11.1 °F 1011.7 in Calm     55 % 0.0 in 0.0 W/m2 CLR
04:06 20.3 °F 11.2 °F 1011.7 in Calm     56 % 0.0 in 0.0 W/m2 CLR
04:11 20.1 °F 11.1 °F 1011.7 in Calm     56 % 0.0 in 0.0 W/m2 CLR
04:16 20.0 °F 11.2 °F 1011.7 in Calm     57 % 0.0 in 0.0 W/m2 CLR
04:21 19.8 °F 10.5 °F 1011.7 in Calm     55 % 0.0 in 0.0 W/m2 CLR
04:26 19.8 °F 10.7 °F 1011.4 in Calm     56 % 0.0 in 0.0 W/m2 CLR
04:31 19.6 °F 10.8 °F 1011.4 in Calm     57 % 0.0 in 0.0 W/m2 CLR
04:36 19.3 °F 10.6 °F 1011.7 in NNW 1.9 mph   57 % 0.0 in 0.0 W/m2 CLR
04:41 19.4 °F 10.4 °F 1011.7 in Calm     56 % 0.0 in 0.0 W/m2 CLR
04:46 19.6 °F 10.8 °F 1011.7 in Calm     57 % 0.0 in 0.0 W/m2 CLR
04:51 19.5 °F 11.0 °F 1011.7 in Calm     58 % 0.0 in 0.0 W/m2 CLR
04:56 19.4 °F 11.2 °F 1011.7 in Calm     59 % 0.0 in 0.0 W/m2 CLR
05:01 19.2 °F 10.9 °F 1011.7 in Calm     59 % 0.0 in 0.0 W/m2 CLR
05:06 19.1 °F 10.9 °F 1011.7 in Calm     59 % 0.0 in 0.0 W/m2 CLR
05:11 19.1 °F 10.3 °F 1011.7 in Calm     57 % 0.0 in 0.0 W/m2 CLR
05:16 19.0 °F 10.3 °F 1011.7 in Calm     57 % 0.0 in 0.0 W/m2 CLR
05:21 18.9 °F 10.8 °F 1011.7 in Calm     59 % 0.0 in 0.0 W/m2 CLR
05:26 18.8 °F 10.8 °F 1011.7 in Calm     60 % 0.0 in 0.0 W/m2 CLR
05:31 18.7 °F 10.7 °F 1011.7 in Calm     60 % 0.0 in 0.0 W/m2 CLR
05:36 18.6 °F 10.6 °F 1011.7 in Calm     60 % 0.0 in 0.0 W/m2 CLR
05:41 18.4 °F 10.8 °F 1011.7 in Calm     61 % 0.0 in 0.0 W/m2 CLR
05:46 18.3 °F 10.7 °F 1011.7 in Calm     61 % 0.0 in 0.0 W/m2 CLR
05:51 18.3 °F 10.6 °F 1012.1 in Calm     61 % 0.0 in 0.0 W/m2 CLR
05:56 18.2 °F 10.8 °F 1012.1 in Calm     62 % 0.0 in 0.0 W/m2 CLR
06:01 18.1 °F 11.1 °F 1012.1 in Calm     64 % 0.0 in 0.0 W/m2 CLR
06:06 17.9 °F 11.0 °F 1012.1 in Calm     64 % 0.0 in 0.0 W/m2 CLR
06:11 17.8 °F 10.7 °F 1012.1 in Calm     63 % 0.0 in 0.0 W/m2 CLR
06:16 17.7 °F 10.8 °F 1012.1 in Calm     64 % 0.0 in 0.0 W/m2 OVC
06:21 17.7 °F 10.8 °F 1012.1 in Calm     64 % 0.0 in 0.0 W/m2 OVC
06:26 17.6 °F 10.9 °F 1012.1 in Calm     65 % 0.0 in 0.0 W/m2 OVC
06:31 17.5 °F 11.1 °F 1012.1 in Calm     66 % 0.0 in 5.0 W/m2 OVC
06:33 17.5 °F 10.8 °F 1012.1 in Calm     65 % 0.0 in 7.0 W/m2 BKN
06:38 17.4 °F 10.8 °F 1012.1 in Calm     65 % 0.0 in 9.0 W/m2 BKN
06:43 17.4 °F 10.5 °F 1012.1 in Calm     64 % 0.0 in 12.0 W/m2 BKN
06:48 17.4 °F 10.6 °F 1012.1 in Calm     64 % 0.0 in 16.0 W/m2 BKN
06:53 17.4 °F 10.8 °F 1012.4 in Calm     65 % 0.0 in 19.0 W/m2 BKN
06:58 17.4 °F 11.2 °F 1012.4 in Calm     67 % 0.0 in 23.0 W/m2 BKN
07:03 17.3 °F 10.4 °F 1012.4 in Calm     64 % 0.0 in 28.0 W/m2 BKN
07:08 17.6 °F 10.9 °F 1012.4 in Calm     65 % 0.0 in 37.0 W/m2 BKN
07:13 17.7 °F 10.8 °F 1012.4 in Calm     64 % 0.0 in 44.0 W/m2 BKN
07:18 17.8 °F 10.9 °F 1012.4 in Calm     64 % 0.0 in 54.0 W/m2 SCT
07:23 18.1 °F 11.1 °F 1012.8 in Calm     64 % 0.0 in 63.0 W/m2 SCT
07:28 18.3 °F 11.1 °F 1012.8 in Calm     63 % 0.0 in 74.0 W/m2 SCT
07:33 18.5 °F 11.1 °F 1012.8 in Calm     62 % 0.0 in 86.0 W/m2 FEW
07:38 18.7 °F 11.0 °F 1012.8 in Calm     61 % 0.0 in 102.0 W/m2 CLR
07:43 18.9 °F 11.2 °F 1013.1 in Calm     61 % 0.0 in 116.0 W/m2 CLR
07:48 19.0 °F 10.8 °F 1012.8 in Calm     59 % 0.0 in 132.0 W/m2 CLR
07:53 19.2 °F 11.3 °F 1013.1 in Calm     60 % 0.0 in 146.0 W/m2 CLR
07:58 19.6 °F 11.4 °F 1013.1 in Calm     59 % 0.0 in 165.0 W/m2 CLR
08:03 20.0 °F 11.2 °F 1013.1 in Calm     57 % 0.0 in 181.0 W/m2 CLR
08:08 20.3 °F 11.5 °F 1013.1 in Calm     57 % 0.0 in 195.0 W/m2 CLR
08:13 20.8 °F 11.4 °F 1013.1 in Calm     55 % 0.0 in 211.0 W/m2 CLR
08:18 21.2 °F 11.6 °F 1013.1 in Calm     54 % 0.0 in 229.0 W/m2 CLR
08:23 21.5 °F 11.2 °F 1013.1 in Calm     52 % 0.0 in 244.0 W/m2 CLR
08:28 21.9 °F 11.6 °F 1013.1 in Calm     52 % 0.0 in 258.0 W/m2 CLR
08:33 22.4 °F 11.2 °F 1013.1 in Calm     49 % 0.0 in 274.0 W/m2 CLR
08:38 22.8 °F 11.9 °F 1013.1 in Calm     50 % 0.0 in 290.0 W/m2 CLR
08:43 23.3 °F 11.3 °F 1013.1 in Calm     47 % 0.0 in 306.0 W/m2 CLR
08:48 23.7 °F 11.7 °F 1013.1 in Calm     47 % 0.0 in 322.0 W/m2 CLR
08:53 24.1 °F 11.4 °F 1013.1 in Calm     45 % 0.0 in 338.0 W/m2 CLR
08:58 24.4 °F 11.7 °F 1012.8 in Calm     45 % 0.0 in 352.0 W/m2 CLR
09:03 24.7 °F 12.0 °F 1012.8 in Calm     45 % 0.0 in 369.0 W/m2 CLR
09:08 25.0 °F 11.9 °F 1013.1 in Calm     44 % 0.0 in 387.0 W/m2 CLR
09:13 25.2 °F 12.1 °F 1012.8 in Calm     44 % 0.0 in 401.0 W/m2 CLR
09:18 25.4 °F 12.2 °F 1013.1 in Calm     44 % 0.0 in 415.0 W/m2 CLR
09:23 25.6 °F 12.1 °F 1013.1 in Calm     43 % 0.0 in 431.0 W/m2 CLR
09:28 26.0 °F 11.3 °F 1013.1 in Calm     40 % 0.0 in 448.0 W/m2 CLR
09:33 26.4 °F 11.7 °F 1013.1 in Calm     40 % 0.0 in 464.0 W/m2 CLR
09:38 26.9 °F 10.6 °F 1012.8 in Calm     36 % 0.0 in 480.0 W/m2 CLR
09:43 27.3 °F 11.3 °F 1012.8 in Calm     37 % 0.0 in 496.0 W/m2 CLR
09:48 27.4 °F 11.0 °F 1012.8 in Calm     36 % 0.0 in 513.0 W/m2 CLR
09:53 27.5 °F 11.1 °F 1013.1 in Calm     36 % 0.0 in 526.0 W/m2 CLR
09:59 27.6 °F 11.2 °F 1013.1 in Calm     36 % 0.0 in 540.0 W/m2 CLR
10:09 27.9 °F 11.8 °F 1013.1 in Calm     37 % 0.0 in 570.0 W/m2 CLR
10:14 28.2 °F 11.7 °F 1013.1 in Calm     36 % 0.0 in 580.0 W/m2 CLR
10:19 28.4 °F 11.9 °F 1013.1 in ENE 5.6 mph 5.6 mph 36 % 0.0 in 594.0 W/m2 CLR
10:24 28.6 °F 11.7 °F 1013.1 in ENE 7.4 mph 7.4 mph 35 % 0.0 in 606.0 W/m2 CLR
10:29 28.8 °F 11.8 °F 1012.8 in ENE 9.3 mph 9.3 mph 35 % 0.0 in 621.0 W/m2 CLR
10:34 28.9 °F 11.9 °F 1012.8 in ENE 9.3 mph 9.3 mph 35 % 0.0 in 631.0 W/m2 CLR
10:39 29.2 °F 12.2 °F 1012.8 in ENE 3.7 mph 3.7 mph 35 % 0.0 in 643.0 W/m2 CLR
10:44 29.4 °F 11.9 °F 1012.8 in Calm   0.6 mph 34 % 0.0 in 656.0 W/m2 CLR
10:49 29.5 °F 12.0 °F 1012.8 in East 13.0 mph 13.0 mph 34 % 0.0 in 670.0 W/m2 CLR
10:54 29.4 °F 11.9 °F 1012.8 in East 9.3 mph 9.3 mph 34 % 0.0 in 684.0 W/m2 CLR
10:59 29.4 °F 11.9 °F 1012.8 in ENE 13.0 mph 13.0 mph 34 % 0.0 in 693.0 W/m2 CLR
11:04 29.8 °F 13.1 °F 1012.8 in ENE 13.0 mph 13.0 mph 36 % 0.0 in 705.0 W/m2 CLR
11:09 30.0 °F 13.7 °F 1012.8 in ENE 3.7 mph 3.7 mph 37 % 0.0 in 712.0 W/m2 CLR
11:14 30.4 °F 13.7 °F 1012.8 in ENE 3.7 mph 3.7 mph 36 % 0.0 in 728.0 W/m2 CLR
11:19 30.4 °F 13.7 °F 1012.8 in ENE 13.0 mph 13.0 mph 36 % 0.0 in 738.0 W/m2 CLR
11:24 30.4 °F 13.7 °F 1012.8 in ENE 7.4 mph 7.4 mph 36 % 0.0 in 747.0 W/m2 CLR
11:29 30.5 °F 13.3 °F 1012.8 in ENE 13.0 mph 13.0 mph 35 % 0.0 in 759.0 W/m2 CLR
11:34 30.1 °F 12.9 °F 1012.8 in NE 13.0 mph 13.0 mph 35 % 0.0 in 772.0 W/m2 CLR
11:39 30.3 °F 13.1 °F 1012.8 in ENE 11.3 mph 11.3 mph 35 % 0.0 in 780.0 W/m2 CLR
11:44 30.6 °F 13.4 °F 1012.8 in ENE 9.3 mph 9.3 mph 35 % 0.0 in 789.0 W/m2 CLR
11:49 30.6 °F 12.5 °F 1012.8 in ENE 12.9 mph 12.9 mph 33 % 0.0 in 800.0 W/m2 CLR
11:54 30.7 °F 12.1 °F 1012.8 in ENE 9.3 mph 9.3 mph 32 % 0.0 in 809.0 W/m2 CLR
11:59 30.7 °F 12.6 °F 1012.8 in East 13.0 mph 13.0 mph 33 % 0.0 in 819.0 W/m2 CLR
12:04 31.1 °F 12.4 °F 1012.8 in ENE 4.8 mph 4.8 mph 32 % 0.0 in 828.0 W/m2 CLR
12:09 31.3 °F 11.7 °F 1012.8 in Calm     30 % 0.0 in 837.0 W/m2 CLR
12:14 31.5 °F 11.8 °F 1012.8 in NE 1.9 mph   30 % 0.0 in 844.0 W/m2 CLR
12:19 31.8 °F 12.6 °F 1012.8 in Calm     31 % 0.0 in 849.0 W/m2 CLR
12:24 32.2 °F 12.9 °F 1012.8 in East 6.4 mph 6.4 mph 31 % 0.0 in 856.0 W/m2 CLR
12:29 32.6 °F 12.7 °F 1012.8 in NE 3.7 mph 3.7 mph 30 % 0.0 in 865.0 W/m2 CLR
12:34 32.9 °F 13.0 °F 1012.8 in ENE 11.1 mph 11.1 mph 30 % 0.0 in 870.0 W/m2 CLR
12:39 32.9 °F 13.1 °F 1012.8 in NE 1.9 mph   30 % 0.0 in 875.0 W/m2 CLR
12:44 32.9 °F 13.0 °F 1012.8 in ENE 7.4 mph 7.4 mph 30 % 0.0 in 882.0 W/m2 CLR
12:49 33.1 °F 13.7 °F 1012.8 in NE 9.3 mph 9.3 mph 31 % 0.0 in 888.0 W/m2 CLR
12:54 33.2 °F 13.8 °F 1012.8 in ENE 3.2 mph 3.2 mph 31 % 0.0 in 893.0 W/m2 CLR
12:59 33.5 °F 14.1 °F 1012.4 in NE 11.1 mph 11.1 mph 31 % 0.0 in 896.0 W/m2 CLR
13:04 33.5 °F 13.6 °F 1012.4 in ENE 7.4 mph 7.4 mph 30 % 0.0 in 900.0 W/m2 CLR
13:09 33.6 °F 13.7 °F 1012.4 in NE 8.0 mph 8.0 mph 30 % 0.0 in 902.0 W/m2 CLR
13:14 33.7 °F 14.2 °F 1012.4 in NE 7.4 mph 7.4 mph 31 % 0.0 in 909.0 W/m2 CLR
13:19 33.9 °F 13.9 °F 1012.4 in NNE 13.0 mph 13.0 mph 30 % 0.0 in 911.0 W/m2 CLR
13:24 33.9 °F 14.4 °F 1012.4 in ENE 8.0 mph 8.0 mph 31 % 0.0 in 912.0 W/m2 CLR
13:29 34.2 °F 14.6 °F 1012.1 in NNE 11.1 mph 11.1 mph 31 % 0.0 in 914.0 W/m2 CLR
13:34 34.4 °F 14.3 °F 1012.1 in Calm     30 % 0.0 in 916.0 W/m2 CLR
13:39 34.4 °F 14.8 °F 1012.1 in Calm     31 % 0.0 in 918.0 W/m2 CLR
13:44 34.5 °F 14.9 °F 1012.1 in NE 9.7 mph 9.7 mph 31 % 0.0 in 921.0 W/m2 CLR
13:49 34.7 °F 15.1 °F 1012.1 in Calm     31 % 0.0 in 919.0 W/m2 CLR
13:54 34.6 °F 14.5 °F 1012.1 in NE 14.8 mph 14.8 mph 30 % 0.0 in 921.0 W/m2 CLR
13:59 34.8 °F 15.2 °F 1012.1 in NE 9.7 mph 9.7 mph 31 % 0.0 in 925.0 W/m2 CLR
14:04 34.9 °F 14.8 °F 1011.7 in East 16.7 mph 16.7 mph 30 % 0.0 in 921.0 W/m2 CLR
14:09 34.7 °F 14.6 °F 1011.7 in Calm     30 % 0.0 in 923.0 W/m2 CLR
14:14 34.7 °F 14.6 °F 1011.7 in ESE 9.3 mph 9.3 mph 30 % 0.0 in 921.0 W/m2 CLR
14:19 34.8 °F 14.7 °F 1011.7 in SE 1.9 mph 1.9 mph 30 % 0.0 in 921.0 W/m2 CLR
14:24 35.3 °F 14.6 °F 1011.7 in ESE 13.0 mph 13.0 mph 29 % 0.0 in 919.0 W/m2 CLR
14:29 35.2 °F 14.5 °F 1011.4 in SE 13.0 mph 13.0 mph 29 % 0.0 in 918.0 W/m2 CLR
14:34 35.2 °F 15.1 °F 1011.4 in Calm     30 % 0.0 in 912.0 W/m2 CLR
14:39 35.3 °F 15.1 °F 1011.4 in ESE 11.1 mph 11.1 mph 30 % 0.0 in 911.0 W/m2 CLR
14:44 35.5 °F 14.7 °F 1011.4 in ENE 3.7 mph 3.7 mph 29 % 0.0 in 909.0 W/m2 CLR
14:49 35.6 °F 14.8 °F 1011.4 in ENE 7.4 mph 7.4 mph 29 % 0.0 in 905.0 W/m2 CLR
14:54 35.9 °F 14.6 °F 1011.4 in SSE 3.7 mph 3.7 mph 28 % 0.0 in 900.0 W/m2 CLR
14:59 35.8 °F 15.0 °F 1011.1 in SE 9.7 mph 9.7 mph 29 % 0.0 in 895.0 W/m2 CLR
15:04 35.6 °F 14.8 °F 1011.1 in Calm     29 % 0.0 in 893.0 W/m2 CLR
15:09 35.8 °F 15.0 °F 1011.1 in East 9.3 mph 9.3 mph 29 % 0.0 in 886.0 W/m2 CLR
15:14 35.9 °F 14.6 °F 1011.1 in ESE 6.4 mph 6.4 mph 28 % 0.0 in 879.0 W/m2 CLR
15:19 35.8 °F 15.0 °F 1011.1 in ENE 13.0 mph 13.0 mph 29 % 0.0 in 875.0 W/m2 CLR
15:24 36.2 °F 14.8 °F 1011.1 in NNE 13.0 mph 13.0 mph 28 % 0.0 in 872.0 W/m2 CLR
15:29 36.6 °F 15.1 °F 1010.7 in North 11.1 mph 11.1 mph 28 % 0.0 in 863.0 W/m2 CLR
15:34 36.7 °F 14.6 °F 1010.7 in ESE 9.3 mph 9.3 mph 27 % 0.0 in 856.0 W/m2 CLR
15:39 36.3 °F 14.8 °F 1010.7 in Calm   0.2 mph 28 % 0.0 in 847.0 W/m2 CLR
15:44 36.3 °F 15.4 °F 1010.7 in East 11.3 mph 11.3 mph 29 % 0.0 in 842.0 W/m2 CLR
15:49 36.3 °F 15.4 °F 1010.7 in ENE 13.0 mph 13.0 mph 29 % 0.0 in 835.0 W/m2 CLR
15:54 36.3 °F 15.4 °F 1010.7 in East 18.5 mph 18.5 mph 29 % 0.0 in 830.0 W/m2 CLR
15:59 36.2 °F 15.8 °F 1010.7 in East 14.8 mph 14.8 mph 30 % 0.0 in 817.0 W/m2 CLR
16:04 36.1 °F 15.2 °F 1010.4 in NE 16.7 mph 16.7 mph 29 % 0.0 in 810.0 W/m2 CLR
16:09 36.0 °F 15.7 °F 1010.4 in ENE 13.0 mph 13.0 mph 30 % 0.0 in 800.0 W/m2 CLR
16:14 35.9 °F 15.7 °F 1010.4 in SE 18.5 mph 18.5 mph 30 % 0.0 in 793.0 W/m2 CLR
16:19 35.9 °F 15.6 °F 1010.4 in SE 13.0 mph 13.0 mph 30 % 0.0 in 784.0 W/m2 CLR
16:24 36.1 °F 15.8 °F 1010.4 in ESE 11.1 mph 11.1 mph 30 % 0.0 in 772.0 W/m2 CLR
16:29 36.1 °F 15.3 °F 1010.4 in East 16.7 mph 16.7 mph 29 % 0.0 in 761.0 W/m2 CLR
16:34 35.9 °F 15.7 °F 1010.4 in SE 16.7 mph 16.7 mph 30 % 0.0 in 752.0 W/m2 CLR
16:39 36.0 °F 15.7 °F 1010.0 in ESE 18.5 mph 18.5 mph 30 % 0.0 in 744.0 W/m2 CLR
16:44 36.0 °F 15.2 °F 1010.0 in East 14.8 mph 14.8 mph 29 % 0.0 in 731.0 W/m2 CLR
16:49 35.8 °F 15.0 °F 1010.0 in SE 16.7 mph 16.7 mph 29 % 0.0 in 721.0 W/m2 CLR
16:54 35.6 °F 14.8 °F 1010.0 in ESE 20.9 mph 20.9 mph 29 % 0.0 in 710.0 W/m2 CLR
16:59 35.4 °F 14.7 °F 1010.0 in ESE 22.2 mph 22.2 mph 29 % 0.0 in 700.0 W/m2 CLR
17:04 35.4 °F 14.7 °F 1010.0 in ESE 14.5 mph 14.5 mph 29 % 0.0 in 686.0 W/m2 CLR
17:09 35.4 °F 14.7 °F 1010.0 in East 14.8 mph 14.8 mph 29 % 0.0 in 677.0 W/m2 CLR
17:14 35.7 °F 14.9 °F 1010.0 in East 13.0 mph 13.0 mph 29 % 0.0 in 664.0 W/m2 CLR
17:19 35.6 °F 14.3 °F 1010.0 in East 18.5 mph 18.5 mph 28 % 0.0 in 654.0 W/m2 CLR
17:24 35.5 °F 14.7 °F 1009.7 in ESE 22.2 mph 22.2 mph 29 % 0.0 in 640.0 W/m2 CLR
17:30 35.6 °F 13.7 °F 1009.7 in ESE 18.5 mph 18.5 mph 27 % 0.0 in 628.0 W/m2 CLR
17:35 35.6 °F 14.3 °F 1009.7 in ESE 18.5 mph 18.5 mph 28 % 0.0 in 615.0 W/m2 CLR
17:43 35.6 °F 14.8 °F 1009.7 in East 18.5 mph 18.5 mph 29 % 0.0 in 591.0 W/m2 CLR
17:48 35.3 °F 14.6 °F 1009.7 in ESE 19.3 mph 19.3 mph 29 % 0.0 in 573.0 W/m2 CLR
17:53 35.2 °F 13.9 °F 1009.7 in ESE 22.2 mph 22.2 mph 28 % 0.0 in 559.0 W/m2 CLR
17:58 35.1 °F 14.3 °F 1009.7 in ESE 16.7 mph 16.7 mph 29 % 0.0 in 547.0 W/m2 CLR
18:03 35.1 °F 14.4 °F 1009.7 in East 16.1 mph 16.1 mph 29 % 0.0 in 529.0 W/m2 CLR
18:08 35.1 °F 14.9 °F 1009.7 in ESE 18.5 mph 18.5 mph 30 % 0.0 in 515.0 W/m2 CLR
18:13 35.1 °F 14.4 °F 1009.7 in SE 20.4 mph 20.4 mph 29 % 0.0 in 501.0 W/m2 CLR
18:18 35.0 °F 14.8 °F 1009.7 in SE 16.1 mph 16.1 mph 30 % 0.0 in 487.0 W/m2 CLR
18:23 35.0 °F 14.8 °F 1009.7 in East 19.3 mph 19.3 mph 30 % 0.0 in 468.0 W/m2 CLR
18:28 34.9 °F 14.7 °F 1009.7 in SE 20.9 mph 20.9 mph 30 % 0.0 in 454.0 W/m2 CLR
18:33 34.9 °F 14.7 °F 1009.4 in ESE 9.3 mph 9.3 mph 30 % 0.0 in 439.0 W/m2 CLR
18:38 35.0 °F 14.8 °F 1009.7 in SE 18.5 mph 18.5 mph 30 % 0.0 in 424.0 W/m2 CLR
18:43 35.0 °F 14.8 °F 1009.7 in ESE 18.5 mph 18.5 mph 30 % 0.0 in 404.0 W/m2 CLR
18:48 35.0 °F 15.3 °F 1009.4 in East 13.0 mph 13.0 mph 31 % 0.0 in 390.0 W/m2 CLR
18:53 34.9 °F 15.3 °F 1009.4 in ESE 18.5 mph 18.5 mph 31 % 0.0 in 376.0 W/m2 CLR
18:58 34.9 °F 15.3 °F 1009.4 in ESE 13.0 mph 13.0 mph 31 % 0.0 in 360.0 W/m2 CLR
19:03 34.9 °F 15.3 °F 1009.4 in SE 14.8 mph 14.8 mph 31 % 0.0 in 343.0 W/m2 CLR
19:08 34.8 °F 14.7 °F 1009.4 in ESE 16.7 mph 16.7 mph 30 % 0.0 in 323.0 W/m2 CLR
19:13 34.7 °F 14.6 °F 1009.4 in SE 13.0 mph 13.0 mph 30 % 0.0 in 309.0 W/m2 CLR
19:18 34.7 °F 15.1 °F 1009.4 in SE 14.8 mph 14.8 mph 31 % 0.0 in 299.0 W/m2 CLR
19:23 34.6 °F 15.0 °F 1009.4 in SE 16.7 mph 16.7 mph 31 % 0.0 in 288.0 W/m2 CLR
19:28 34.6 °F 14.9 °F 1009.4 in ESE 12.9 mph 12.9 mph 31 % 0.0 in 274.0 W/m2 CLR
19:33 34.6 °F 13.9 °F 1009.4 in ESE 12.9 mph 12.9 mph 29 % 0.0 in 255.0 W/m2 CLR
19:38 34.5 °F 14.9 °F 1009.7 in SE 16.1 mph 16.1 mph 31 % 0.0 in 243.0 W/m2 CLR
19:43 34.3 °F 14.2 °F 1009.7 in SSE 16.7 mph 16.7 mph 30 % 0.0 in 229.0 W/m2 CLR
19:48 34.2 °F 14.1 °F 1009.7 in SE 16.7 mph 16.7 mph 30 % 0.0 in 213.0 W/m2 CLR
19:53 34.0 °F 14.5 °F 1009.7 in East 16.7 mph 16.7 mph 31 % 0.0 in 192.0 W/m2 CLR
19:58 33.7 °F 14.7 °F 1009.7 in ESE 5.6 mph 5.6 mph 32 % 0.0 in 174.0 W/m2 CLR
20:03 33.6 °F 14.6 °F 1009.7 in ESE 12.9 mph 12.9 mph 32 % 0.0 in 160.0 W/m2 CLR
20:08 33.4 °F 14.5 °F 1009.7 in ESE 14.8 mph 14.8 mph 32 % 0.0 in 144.0 W/m2 CLR
20:13 33.3 °F 14.3 °F 1009.7 in ESE 13.0 mph 13.0 mph 32 % 0.0 in 128.0 W/m2 CLR
20:18 33.1 °F 14.7 °F 1009.7 in ESE 13.0 mph 13.0 mph 33 % 0.0 in 113.0 W/m2 CLR
20:23 32.8 °F 14.4 °F 1010.0 in ESE 14.8 mph 14.8 mph 33 % 0.0 in 98.0 W/m2 CLR
20:28 32.6 °F 14.7 °F 1009.7 in ESE 11.3 mph 11.3 mph 34 % 0.0 in 88.0 W/m2 CLR
20:33 32.5 °F 14.6 °F 1009.7 in ESE 11.1 mph 11.1 mph 34 % 0.0 in 74.0 W/m2 FEW
20:38 32.3 °F 14.4 °F 1010.0 in ESE 8.0 mph 8.0 mph 34 % 0.0 in 65.0 W/m2 FEW
20:43 32.1 °F 14.3 °F 1010.0 in ESE 13.0 mph 13.0 mph 34 % 0.0 in 47.0 W/m2 SCT
20:48 31.9 °F 14.5 °F 1009.7 in ESE 14.8 mph 14.8 mph 35 % 0.0 in 42.0 W/m2 BKN
20:53 31.7 °F 14.4 °F 1010.0 in East 9.3 mph 9.3 mph 35 % 0.0 in 39.0 W/m2 BKN
20:58 31.5 °F 14.6 °F 1010.0 in ESE 7.4 mph 7.4 mph 36 % 0.0 in 30.0 W/m2 BKN
21:03 31.3 °F 14.5 °F 1010.0 in ESE 12.9 mph 12.9 mph 36 % 0.0 in 26.0 W/m2 BKN
21:08 31.2 °F 14.4 °F 1010.0 in SE 5.6 mph 5.6 mph 36 % 0.0 in 21.0 W/m2 BKN
21:13 31.1 °F 14.3 °F 1010.0 in Calm     36 % 0.0 in 18.0 W/m2 BKN
21:18 31.0 °F 14.2 °F 1010.0 in Calm     36 % 0.0 in 14.0 W/m2 BKN
21:23 30.8 °F 14.1 °F 1010.0 in Calm     36 % 0.0 in 12.0 W/m2 BKN
21:28 30.6 °F 14.3 °F 1010.0 in Calm     37 % 0.0 in 9.0 W/m2 BKN
21:29 30.6 °F 14.2 °F 1010.0 in Calm     37 % 0.0 in 9.0 W/m2 BKN
21:34 30.3 °F 14.0 °F 1010.0 in Calm     37 % 0.0 in 5.0 W/m2 OVC
21:39 30.0 °F 14.1 °F 1010.4 in Calm     38 % 0.0 in 0.0 W/m2 OVC
21:44 29.7 °F 13.9 °F 1010.4 in Calm     38 % 0.0 in 0.0 W/m2 CLR
21:49 29.6 °F 13.7 °F 1010.4 in Calm     38 % 0.0 in 0.0 W/m2 CLR
21:54 29.4 °F 14.0 °F 1010.4 in Calm     39 % 0.0 in 0.0 W/m2 CLR
21:59 29.2 °F 13.8 °F 1010.4 in Calm     39 % 0.0 in 0.0 W/m2 CLR
22:04 29.1 °F 14.1 °F 1010.4 in Calm     40 % 0.0 in 0.0 W/m2 CLR
22:09 28.8 °F 13.9 °F 1010.4 in Calm     40 % 0.0 in 0.0 W/m2 CLR
22:14 28.7 °F 13.8 °F 1010.4 in Calm     40 % 0.0 in 0.0 W/m2 CLR
22:19 28.6 °F 13.3 °F 1010.7 in Calm     39 % 0.0 in 0.0 W/m2 CLR
22:24 28.6 °F 13.7 °F 1010.7 in Calm     40 % 0.0 in 0.0 W/m2 CLR
22:29 28.4 °F 13.5 °F 1010.7 in Calm     40 % 0.0 in 0.0 W/m2 CLR
22:34 28.2 °F 13.3 °F 1010.7 in Calm     40 % 0.0 in 0.0 W/m2 CLR
22:39 28.1 °F 13.6 °F 1010.7 in Calm     41 % 0.0 in 0.0 W/m2 CLR
22:44 27.9 °F 13.4 °F 1011.1 in Calm     41 % 0.0 in 0.0 W/m2 CLR
22:49 27.7 °F 13.3 °F 1011.1 in Calm     41 % 0.0 in 0.0 W/m2 CLR
22:54 27.5 °F 13.4 °F 1011.1 in Calm     42 % 0.0 in 0.0 W/m2 CLR
22:59 27.3 °F 13.3 °F 1011.1 in Calm     42 % 0.0 in 0.0 W/m2 CLR
23:04 27.2 °F 13.2 °F 1011.1 in Calm     42 % 0.0 in 0.0 W/m2 CLR
23:09 27.1 °F 13.1 °F 1011.1 in Calm     42 % 0.0 in 0.0 W/m2 CLR
23:14 27.0 °F 13.3 °F 1011.1 in Calm     43 % 0.0 in 0.0 W/m2 CLR
23:19 26.9 °F 13.3 °F 1011.1 in Calm     43 % 0.0 in 0.0 W/m2 CLR
23:24 26.8 °F 13.2 °F 1011.1 in Calm     43 % 0.0 in 0.0 W/m2 CLR
23:29 26.8 °F 13.2 °F 1011.1 in Calm     43 % 0.0 in 0.0 W/m2 CLR
23:34 26.7 °F 13.4 °F 1011.1 in Calm     44 % 0.0 in 0.0 W/m2 CLR
23:39 26.5 °F 13.3 °F 1011.1 in Calm     44 % 0.0 in 0.0 W/m2 CLR
23:44 26.3 °F 13.4 °F 1011.1 in Calm     45 % 0.0 in 0.0 W/m2 CLR
23:49 26.2 °F 13.6 °F 1011.1 in Calm     46 % 0.0 in 0.0 W/m2 CLR
23:54 26.0 °F 13.5 °F 1011.1 in Calm     46 % 0.0 in 0.0 W/m2 CLR
23:59 25.9 °F 13.7 °F 1011.1 in Calm     47 % 0.0 in 0.0 W/m2 CLR
Lo Temps de Massalio
Compliments of Weather Underground - 1.25 mb